createdAt,value
2023-04-27T00:00:23.297Z,5726.00
2023-04-27T00:01:23.304Z,5727.00
2023-04-27T00:02:23.402Z,5725.00
2023-04-27T00:03:23.525Z,5727.00
2023-04-27T00:04:23.577Z,5726.00
2023-04-27T00:05:23.455Z,5716.00
2023-04-27T00:06:23.402Z,5713.00
2023-04-27T00:07:23.341Z,5706.00
2023-04-27T00:08:23.370Z,5715.00
2023-04-27T00:09:23.372Z,5693.00
2023-04-27T00:10:23.366Z,5698.00
2023-04-27T00:11:23.371Z,5692.00
2023-04-27T00:12:23.383Z,5691.00
2023-04-27T00:13:23.405Z,5686.00
2023-04-27T00:14:23.417Z,5682.00
2023-04-27T00:15:23.423Z,5684.00
2023-04-27T00:16:23.442Z,5681.00
2023-04-27T00:17:23.451Z,5669.00
2023-04-27T00:18:23.425Z,5671.00
2023-04-27T00:19:23.447Z,5668.00
2023-04-27T00:20:23.461Z,5666.00
2023-04-27T00:21:23.471Z,5650.00
2023-04-27T00:22:23.471Z,5651.00
2023-04-27T00:23:23.474Z,5645.00
2023-04-27T00:24:23.492Z,5645.00
2023-04-27T00:25:23.504Z,5646.00
2023-04-27T00:26:23.510Z,5647.00
2023-04-27T00:27:23.552Z,5647.00
2023-04-27T00:28:23.566Z,5651.00
2023-04-27T00:29:23.558Z,5643.00
2023-04-27T00:30:23.552Z,5645.00
2023-04-27T00:31:23.591Z,5639.00
2023-04-27T00:32:23.639Z,5632.00
2023-04-27T00:33:23.577Z,5631.00
2023-04-27T00:34:23.581Z,5623.00
2023-04-27T00:35:23.600Z,5621.00
2023-04-27T00:36:23.615Z,5621.00
2023-04-27T00:37:23.619Z,5619.00
2023-04-27T00:38:23.622Z,5604.00
2023-04-27T00:39:23.635Z,5606.00
2023-04-27T00:40:23.635Z,5597.00
2023-04-27T00:41:23.660Z,5594.00
2023-04-27T00:42:23.663Z,5589.00
2023-04-27T00:43:23.674Z,5588.00
2023-04-27T00:44:23.675Z,5578.00
2023-04-27T00:45:23.706Z,5581.00
2023-04-27T00:46:23.722Z,5580.00
2023-04-27T00:47:23.731Z,5574.00
2023-04-27T00:48:23.711Z,5567.00
2023-04-27T00:49:23.742Z,5570.00
2023-04-27T00:50:23.759Z,5562.00
2023-04-27T00:51:23.759Z,5554.00
2023-04-27T00:52:23.768Z,5555.00
2023-04-27T00:53:23.780Z,5545.00
2023-04-27T00:54:23.790Z,5536.00
2023-04-27T00:55:23.826Z,5548.00
2023-04-27T00:56:23.800Z,5549.00
2023-04-27T00:57:23.818Z,5530.00
2023-04-27T00:58:23.836Z,5547.00
2023-04-27T00:59:23.840Z,5532.00
2023-04-27T01:00:23.855Z,5525.00
2023-04-27T01:01:23.959Z,5528.00
2023-04-27T01:02:23.980Z,5529.00
2023-04-27T01:03:24.144Z,5529.00
2023-04-27T01:04:23.999Z,5523.00
2023-04-27T01:05:23.889Z,5523.00
2023-04-27T01:06:23.890Z,5527.00
2023-04-27T01:07:23.913Z,5517.00
2023-04-27T01:08:23.902Z,5511.00
2023-04-27T01:09:23.925Z,5508.00
2023-04-27T01:10:23.939Z,5515.00
2023-04-27T01:11:23.928Z,5499.00
2023-04-27T01:12:23.934Z,5497.00
2023-04-27T01:13:23.948Z,5489.00
2023-04-27T01:14:23.964Z,5498.00
2023-04-27T01:15:23.968Z,5482.00
2023-04-27T01:16:24.012Z,5480.00
2023-04-27T01:17:24.012Z,5478.00
2023-04-27T01:18:23.990Z,5482.00
2023-04-27T01:19:24.017Z,5464.00
2023-04-27T01:20:24.004Z,5465.00
2023-04-27T01:21:24.044Z,5455.00
2023-04-27T01:22:24.017Z,5452.00
2023-04-27T01:23:24.041Z,5450.00
2023-04-27T01:24:24.036Z,5444.00
2023-04-27T01:25:24.034Z,5445.00
2023-04-27T01:26:24.036Z,5442.00
2023-04-27T01:27:24.055Z,5447.00
2023-04-27T01:28:24.052Z,5448.00
2023-04-27T01:29:24.053Z,5425.00
2023-04-27T01:30:24.058Z,5419.00
2023-04-27T01:31:24.149Z,5425.00
2023-04-27T01:32:24.142Z,5428.00
2023-04-27T01:33:24.096Z,5418.00
2023-04-27T01:34:24.097Z,5429.00
2023-04-27T01:35:25.660Z,5418.00
2023-04-27T01:36:24.134Z,5418.00
2023-04-27T01:37:24.134Z,5414.00
2023-04-27T01:38:24.153Z,5411.00
2023-04-27T01:39:24.140Z,5391.00
2023-04-27T01:40:24.160Z,5387.00
2023-04-27T01:41:24.164Z,5386.00
2023-04-27T01:42:24.158Z,5383.00
2023-04-27T01:43:24.164Z,5389.00
2023-04-27T01:44:24.179Z,5365.00
2023-04-27T01:45:24.198Z,5377.00
2023-04-27T01:46:24.220Z,5368.00
2023-04-27T01:47:24.231Z,5354.00
2023-04-27T01:48:24.228Z,5361.00
2023-04-27T01:49:24.232Z,5361.00
2023-04-27T01:50:24.241Z,5351.00
2023-04-27T01:51:24.249Z,5354.00
2023-04-27T01:52:24.267Z,5348.00
2023-04-27T01:53:24.251Z,5340.00
2023-04-27T01:54:25.554Z,5334.00
2023-04-27T01:55:24.295Z,5334.00
2023-04-27T01:56:24.285Z,5337.00
2023-04-27T01:57:24.308Z,5339.00
2023-04-27T01:58:24.313Z,5342.00
2023-04-27T01:59:24.325Z,5340.00
2023-04-27T02:00:24.332Z,5343.00
2023-04-27T02:01:24.360Z,5328.00
2023-04-27T02:02:24.488Z,5324.00
2023-04-27T02:03:24.578Z,5319.00
2023-04-27T02:04:24.517Z,5327.00
2023-04-27T02:05:24.405Z,5319.00
2023-04-27T02:06:24.391Z,5314.00
2023-04-27T02:07:24.401Z,5304.00
2023-04-27T02:08:24.401Z,5311.00
2023-04-27T02:09:24.406Z,5298.00
2023-04-27T02:10:24.433Z,5299.00
2023-04-27T02:11:24.433Z,5298.00
2023-04-27T02:12:24.480Z,5283.00
2023-04-27T02:13:24.470Z,5284.00
2023-04-27T02:14:24.460Z,5292.00
2023-04-27T02:15:24.785Z,5279.00
2023-04-27T02:16:24.531Z,5279.00
2023-04-27T02:17:24.601Z,5276.00
2023-04-27T02:18:24.478Z,5271.00
2023-04-27T02:19:24.493Z,5262.00
2023-04-27T02:20:24.502Z,5252.00
2023-04-27T02:21:24.492Z,5261.00
2023-04-27T02:22:24.493Z,5248.00
2023-04-27T02:23:24.498Z,5248.00
2023-04-27T02:24:24.497Z,5249.00
2023-04-27T02:25:24.511Z,5249.00
2023-04-27T02:26:24.514Z,5250.00
2023-04-27T02:27:24.530Z,5251.00
2023-04-27T02:28:24.526Z,5256.00
2023-04-27T02:29:24.533Z,5250.00
2023-04-27T02:30:24.545Z,5256.00
2023-04-27T02:31:24.595Z,5249.00
2023-04-27T02:32:24.586Z,5237.00
2023-04-27T02:33:24.558Z,5247.00
2023-04-27T02:34:24.573Z,5237.00
2023-04-27T02:35:24.598Z,5243.00
2023-04-27T02:36:24.580Z,5220.00
2023-04-27T02:37:24.608Z,5183.00
2023-04-27T02:38:24.586Z,5149.00
2023-04-27T02:39:24.596Z,5125.00
2023-04-27T02:40:24.613Z,5098.00
2023-04-27T02:41:24.638Z,5037.00
2023-04-27T02:42:24.637Z,4967.00
2023-04-27T02:43:24.649Z,4903.00
2023-04-27T02:44:24.622Z,4842.00
2023-04-27T02:45:24.669Z,4791.00
2023-04-27T02:46:24.662Z,4688.00
2023-04-27T02:47:24.741Z,4597.00
2023-04-27T02:48:24.837Z,4545.00
2023-04-27T02:49:24.688Z,4464.00
2023-04-27T02:50:24.773Z,4366.00
2023-04-27T02:51:24.762Z,4311.00
2023-04-27T02:52:24.718Z,4254.00
2023-04-27T02:53:24.732Z,4185.00
2023-04-27T02:54:24.738Z,4108.00
2023-04-27T02:55:24.766Z,4048.00
2023-04-27T02:56:24.794Z,3976.00
2023-04-27T02:57:24.853Z,3919.00
2023-04-27T02:58:24.896Z,3866.00
2023-04-27T02:59:24.983Z,3804.00
2023-04-27T03:00:25.020Z,3751.00
2023-04-27T03:01:25.084Z,3735.00
2023-04-27T03:02:25.214Z,3705.00
2023-04-27T03:03:25.325Z,3670.00
2023-04-27T03:04:25.376Z,3634.00
2023-04-27T03:05:25.337Z,3607.00
2023-04-27T03:06:25.390Z,3578.00
2023-04-27T03:07:25.464Z,3550.00
2023-04-27T03:08:25.541Z,3475.00
2023-04-27T03:09:25.617Z,3454.00
2023-04-27T03:10:25.690Z,3414.00
2023-04-27T03:11:25.756Z,3366.00
2023-04-27T03:12:25.855Z,3327.00
2023-04-27T03:13:25.930Z,3289.00
2023-04-27T03:14:25.996Z,3254.00
2023-04-27T03:15:26.097Z,3198.00
2023-04-27T03:16:26.226Z,3153.00
2023-04-27T03:17:26.287Z,3107.00
2023-04-27T03:18:26.328Z,3073.00
2023-04-27T03:19:26.397Z,3030.00
2023-04-27T03:20:26.483Z,2978.00
2023-04-27T03:21:26.577Z,2964.00
2023-04-27T03:22:26.652Z,2928.00
2023-04-27T03:23:26.759Z,2892.00
2023-04-27T03:24:26.832Z,2860.00
2023-04-27T03:25:26.924Z,2873.00
2023-04-27T03:26:26.991Z,2852.00
2023-04-27T03:27:27.088Z,2852.00
2023-04-27T03:28:27.174Z,2831.00
2023-04-27T03:29:27.285Z,2828.00
2023-04-27T03:30:27.337Z,2830.00
2023-04-27T03:31:27.432Z,2832.00
2023-04-27T03:32:27.521Z,2817.00
2023-04-27T03:33:27.595Z,2800.00
2023-04-27T03:34:27.681Z,2792.00
2023-04-27T03:35:27.783Z,2754.00
2023-04-27T03:36:27.869Z,2721.00
2023-04-27T03:37:27.975Z,2704.00
2023-04-27T03:38:28.075Z,2713.00
2023-04-27T03:39:28.153Z,2692.00
2023-04-27T03:40:28.243Z,2653.00
2023-04-27T03:41:28.334Z,2639.00
2023-04-27T03:42:28.426Z,2625.00
2023-04-27T03:43:28.520Z,2582.00
2023-04-27T03:44:28.624Z,2567.00
2023-04-27T03:45:28.733Z,2577.00
2023-04-27T03:46:29.006Z,2563.00
2023-04-27T03:47:28.960Z,2548.00
2023-04-27T03:48:28.973Z,2543.00
2023-04-27T03:49:29.066Z,2549.00
2023-04-27T03:50:30.167Z,2512.00
2023-04-27T03:51:29.283Z,2503.00
2023-04-27T03:52:29.298Z,2504.00
2023-04-27T03:53:29.305Z,2504.00
2023-04-27T03:54:29.325Z,2505.00
2023-04-27T03:55:29.356Z,2506.00
2023-04-27T03:56:29.349Z,2504.00
2023-04-27T03:57:29.394Z,2484.00
2023-04-27T03:58:29.395Z,2437.00
2023-04-27T03:59:29.428Z,2410.00
2023-04-27T04:00:29.466Z,2395.00
2023-04-27T04:01:29.467Z,2396.00
2023-04-27T04:02:29.642Z,2365.00
2023-04-27T04:03:29.719Z,2360.00
2023-04-27T04:04:29.744Z,2353.00
2023-04-27T04:05:29.660Z,2339.00
2023-04-27T04:06:29.743Z,2329.00
2023-04-27T04:07:29.805Z,2340.00
2023-04-27T04:08:29.888Z,2391.00
2023-04-27T04:09:29.960Z,2391.00
2023-04-27T04:10:30.048Z,2415.00
2023-04-27T04:11:30.127Z,2434.00
2023-04-27T04:12:30.220Z,2461.00
2023-04-27T04:13:30.299Z,2475.00
2023-04-27T04:14:30.409Z,2483.00
2023-04-27T04:15:30.535Z,2495.00
2023-04-27T04:16:30.656Z,2499.00
2023-04-27T04:17:30.717Z,2498.00
2023-04-27T04:18:30.774Z,2488.00
2023-04-27T04:19:30.855Z,2483.00
2023-04-27T04:20:31.324Z,2495.00
2023-04-27T04:21:31.055Z,2518.00
2023-04-27T04:22:31.141Z,2505.00
2023-04-27T04:23:31.191Z,2482.00
2023-04-27T04:24:31.265Z,2454.00
2023-04-27T04:25:31.331Z,2448.00
2023-04-27T04:26:31.400Z,2446.00
2023-04-27T04:27:31.459Z,2416.00
2023-04-27T04:28:31.498Z,2417.00
2023-04-27T04:29:31.516Z,2419.00
2023-04-27T04:30:31.544Z,2434.00
2023-04-27T04:31:31.579Z,2418.00
2023-04-27T04:32:31.743Z,2429.00
2023-04-27T04:33:31.593Z,2450.00
2023-04-27T04:34:31.646Z,2420.00
2023-04-27T04:35:31.653Z,2434.00
2023-04-27T04:36:31.705Z,2456.00
2023-04-27T04:37:31.708Z,2460.00
2023-04-27T04:38:31.723Z,2467.00
2023-04-27T04:39:31.728Z,2442.00
2023-04-27T04:40:31.748Z,2398.00
2023-04-27T04:41:31.842Z,2398.00
2023-04-27T04:42:31.794Z,2409.00
2023-04-27T04:43:31.832Z,2426.00
2023-04-27T04:44:31.852Z,2407.00
2023-04-27T04:45:31.888Z,2391.00
2023-04-27T04:46:31.901Z,2429.00
2023-04-27T04:47:31.947Z,2403.00
2023-04-27T04:48:31.953Z,2428.00
2023-04-27T04:49:32.000Z,2419.00
2023-04-27T04:50:31.982Z,2439.00
2023-04-27T04:51:32.024Z,2441.00
2023-04-27T04:52:32.041Z,2450.00
2023-04-27T04:53:32.074Z,2469.00
2023-04-27T04:54:32.074Z,2500.00
2023-04-27T04:55:32.114Z,2555.00
2023-04-27T04:56:32.142Z,2551.00
2023-04-27T04:57:32.161Z,2568.00
2023-04-27T04:58:32.171Z,2561.00
2023-04-27T04:59:32.197Z,2585.00
2023-04-27T05:00:32.240Z,2565.00
2023-04-27T05:01:32.262Z,2572.00
2023-04-27T05:02:32.379Z,2594.00
2023-04-27T05:03:32.387Z,2657.00
2023-04-27T05:04:32.575Z,2670.00
2023-04-27T05:05:32.425Z,2693.00
2023-04-27T05:06:32.505Z,2721.00
2023-04-27T05:07:32.515Z,2722.00
2023-04-27T05:08:32.521Z,2728.00
2023-04-27T05:09:32.559Z,2753.00
2023-04-27T05:10:32.590Z,2833.00
2023-04-27T05:11:32.600Z,2962.00
2023-04-27T05:12:32.625Z,3014.00
2023-04-27T05:13:32.679Z,3042.00
2023-04-27T05:14:32.699Z,3032.00
2023-04-27T05:15:32.724Z,3044.00
2023-04-27T05:16:32.756Z,3003.00
2023-04-27T05:17:32.874Z,3023.00
2023-04-27T05:18:32.910Z,3041.00
2023-04-27T05:19:33.006Z,3055.00
2023-04-27T05:20:33.096Z,3063.00
2023-04-27T05:21:33.148Z,3077.00
2023-04-27T05:22:33.221Z,3077.00
2023-04-27T05:23:33.255Z,3131.00
2023-04-27T05:24:33.309Z,3162.00
2023-04-27T05:25:33.360Z,3188.00
2023-04-27T05:26:33.391Z,3197.00
2023-04-27T05:27:33.472Z,3205.00
2023-04-27T05:28:33.495Z,3243.00
2023-04-27T05:29:33.605Z,3231.00
2023-04-27T05:30:33.700Z,3267.00
2023-04-27T05:31:33.762Z,3284.00
2023-04-27T05:32:33.865Z,3287.00
2023-04-27T05:33:33.904Z,3300.00
2023-04-27T05:34:33.908Z,3296.00
2023-04-27T05:35:33.971Z,3296.00
2023-04-27T05:36:34.093Z,3306.00
2023-04-27T05:37:34.127Z,3307.00
2023-04-27T05:38:34.225Z,3286.00
2023-04-27T05:39:34.375Z,3299.00
2023-04-27T05:40:34.427Z,3291.00
2023-04-27T05:41:34.628Z,3328.00
2023-04-27T05:42:34.602Z,3316.00
2023-04-27T05:43:34.688Z,3344.00
2023-04-27T05:44:34.802Z,3354.00
2023-04-27T05:45:34.882Z,3355.00
2023-04-27T05:46:37.893Z,3354.00
2023-04-27T05:47:35.854Z,3337.00
2023-04-27T05:48:35.024Z,3333.00
2023-04-27T05:49:35.065Z,3327.00
2023-04-27T05:50:35.137Z,3311.00
2023-04-27T05:51:35.150Z,3297.00
2023-04-27T05:52:37.641Z,3310.00
2023-04-27T05:53:35.128Z,3310.00
2023-04-27T05:54:35.861Z,3304.00
2023-04-27T05:55:37.372Z,3310.00
2023-04-27T05:56:35.467Z,3303.00
2023-04-27T05:57:35.555Z,3309.00
2023-04-27T05:58:35.652Z,3300.00
2023-04-27T05:59:35.694Z,3312.00
2023-04-27T06:00:35.847Z,3331.00
2023-04-27T06:01:35.802Z,3332.00
2023-04-27T06:02:35.889Z,3337.00
2023-04-27T06:03:36.016Z,3348.00
2023-04-27T06:04:35.986Z,3370.00
2023-04-27T06:05:35.896Z,3397.00
2023-04-27T06:06:35.886Z,3409.00
2023-04-27T06:07:35.936Z,3410.00
2023-04-27T06:08:35.912Z,3413.00
2023-04-27T06:09:35.960Z,3433.00
2023-04-27T06:10:39.754Z,3455.00
2023-04-27T06:11:36.230Z,3412.00
2023-04-27T06:12:36.026Z,3425.00
2023-04-27T06:13:36.058Z,3413.00
2023-04-27T06:14:36.098Z,3427.00
2023-04-27T06:15:36.132Z,3452.00
2023-04-27T06:16:36.140Z,3491.00
2023-04-27T06:17:36.178Z,3540.00
2023-04-27T06:18:36.201Z,3541.00
2023-04-27T06:19:36.171Z,3558.00
2023-04-27T06:20:36.207Z,3559.00
2023-04-27T06:21:36.274Z,3564.00
2023-04-27T06:22:36.248Z,3588.00
2023-04-27T06:23:36.297Z,3678.00
2023-04-27T06:24:36.312Z,3788.00
2023-04-27T06:25:36.320Z,3809.00
2023-04-27T06:26:36.358Z,3838.00
2023-04-27T06:27:36.374Z,3863.00
2023-04-27T06:28:36.423Z,3891.00
2023-04-27T06:29:36.421Z,3921.00
2023-04-27T06:30:37.638Z,3930.00
2023-04-27T06:31:36.506Z,3954.00
2023-04-27T06:32:36.478Z,3993.00
2023-04-27T06:33:36.569Z,3998.00
2023-04-27T06:34:36.514Z,4022.00
2023-04-27T06:35:36.615Z,4043.00
2023-04-27T06:36:36.544Z,4047.00
2023-04-27T06:37:36.574Z,4074.00
2023-04-27T06:38:36.571Z,4066.00
2023-04-27T06:39:36.622Z,4079.00
2023-04-27T06:40:36.654Z,4081.00
2023-04-27T06:41:36.616Z,4101.00
2023-04-27T06:42:36.617Z,4103.00
2023-04-27T06:43:36.621Z,4107.00
2023-04-27T06:44:36.620Z,4114.00
2023-04-27T06:45:36.660Z,4136.00
2023-04-27T06:46:37.544Z,4157.00
2023-04-27T06:47:36.657Z,4173.00
2023-04-27T06:48:36.659Z,4189.00
2023-04-27T06:49:36.781Z,4189.00
2023-04-27T06:50:36.667Z,4186.00
2023-04-27T06:51:36.661Z,4200.00
2023-04-27T06:52:36.716Z,4141.00
2023-04-27T06:53:36.701Z,4078.00
2023-04-27T06:54:36.767Z,3996.00
2023-04-27T06:55:36.706Z,3878.00
2023-04-27T06:56:36.716Z,3755.00
2023-04-27T06:57:36.883Z,3664.00
2023-04-27T06:58:36.775Z,3565.00
2023-04-27T06:59:36.808Z,3466.00
2023-04-27T07:00:36.807Z,3390.00
2023-04-27T07:01:36.841Z,3290.00
2023-04-27T07:02:36.955Z,3219.00
2023-04-27T07:03:37.217Z,3142.00
2023-04-27T07:04:36.902Z,3111.00
2023-04-27T07:05:36.886Z,3051.00
2023-04-27T07:06:36.892Z,2983.00
2023-04-27T07:07:36.908Z,2914.00
2023-04-27T07:08:36.969Z,2867.00
2023-04-27T07:09:37.891Z,2790.00
2023-04-27T07:10:36.963Z,2731.00
2023-04-27T07:11:37.007Z,2680.00
2023-04-27T07:12:37.077Z,2622.00
2023-04-27T07:13:37.139Z,2566.00
2023-04-27T07:14:37.163Z,2539.00
2023-04-27T07:15:37.184Z,2487.00
2023-04-27T07:16:37.272Z,2431.00
2023-04-27T07:17:37.206Z,2399.00
2023-04-27T07:18:37.238Z,2360.00
2023-04-27T07:19:37.233Z,2339.00
2023-04-27T07:20:37.253Z,2304.00
2023-04-27T07:21:37.218Z,2229.00
2023-04-27T07:22:37.224Z,2194.00
2023-04-27T07:23:37.236Z,2158.00
2023-04-27T07:24:37.875Z,2131.00
2023-04-27T07:25:37.272Z,2090.00
2023-04-27T07:26:37.292Z,2060.00
2023-04-27T07:27:37.873Z,2033.00
2023-04-27T07:28:37.879Z,2028.00
2023-04-27T07:29:38.397Z,2012.00
2023-04-27T07:30:37.413Z,1971.00
2023-04-27T07:31:37.533Z,1973.00
2023-04-27T07:32:37.519Z,1928.00
2023-04-27T07:33:37.551Z,1912.00
2023-04-27T07:34:49.161Z,1882.00
2023-04-27T07:35:38.592Z,1881.00
2023-04-27T07:36:37.536Z,1861.00
2023-04-27T07:37:37.548Z,1808.00
2023-04-27T07:38:37.553Z,1800.00
2023-04-27T07:39:37.520Z,1801.00
2023-04-27T07:40:37.618Z,1786.00
2023-04-27T07:41:37.553Z,1796.00
2023-04-27T07:42:37.567Z,1787.00
2023-04-27T07:43:37.572Z,1770.00
2023-04-27T07:44:37.568Z,1776.00
2023-04-27T07:45:37.637Z,1794.00
2023-04-27T07:46:37.605Z,1791.00
2023-04-27T07:47:37.634Z,1805.00
2023-04-27T07:48:37.613Z,1847.00
2023-04-27T07:49:37.723Z,1869.00
2023-04-27T07:50:37.605Z,1856.00
2023-04-27T07:51:37.607Z,1819.00
2023-04-27T07:52:37.618Z,1845.00
2023-04-27T07:53:37.618Z,1819.00
2023-04-27T07:54:37.668Z,1811.00
2023-04-27T07:55:37.644Z,1729.00
2023-04-27T07:56:37.926Z,1690.00
2023-04-27T07:57:37.653Z,1631.00
2023-04-27T07:58:37.696Z,1627.00
2023-04-27T07:59:37.670Z,1601.00
2023-04-27T08:00:37.679Z,1563.00
2023-04-27T08:01:37.708Z,1573.00
2023-04-27T08:02:37.865Z,1554.00
2023-04-27T08:03:37.902Z,1525.00
2023-04-27T08:04:38.083Z,1542.00
2023-04-27T08:05:38.697Z,1514.00
2023-04-27T08:06:39.142Z,1490.00
2023-04-27T08:07:44.192Z,1431.00
2023-04-27T08:08:38.941Z,1371.00
2023-04-27T08:09:38.019Z,1337.00
2023-04-27T08:10:38.064Z,1280.00
2023-04-27T08:11:38.120Z,1255.00
2023-04-27T08:12:38.188Z,1243.00
2023-04-27T08:13:38.252Z,1204.00
2023-04-27T08:14:38.328Z,1146.00
2023-04-27T08:15:38.825Z,1132.00
2023-04-27T08:16:38.619Z,1118.00
2023-04-27T08:17:38.595Z,1104.00
2023-04-27T08:18:38.626Z,1072.00
2023-04-27T08:19:38.686Z,1058.00
2023-04-27T08:20:38.781Z,1029.00
2023-04-27T08:21:39.048Z,971.00
2023-04-27T08:22:38.817Z,924.00
2023-04-27T08:23:38.813Z,892.00
2023-04-27T08:24:38.833Z,889.00
2023-04-27T08:25:38.859Z,880.00
2023-04-27T08:26:38.856Z,850.00
2023-04-27T08:27:38.859Z,807.00
2023-04-27T08:28:38.861Z,787.00
2023-04-27T08:29:38.856Z,762.00
2023-04-27T08:30:39.411Z,751.00
2023-04-27T08:31:38.961Z,729.00
2023-04-27T08:32:39.088Z,722.00
2023-04-27T08:33:39.037Z,739.00
2023-04-27T08:34:39.077Z,730.00
2023-04-27T08:35:39.156Z,714.00
2023-04-27T08:36:39.222Z,688.00
2023-04-27T08:37:39.270Z,684.00
2023-04-27T08:38:39.433Z,677.00
2023-04-27T08:39:39.422Z,720.00
2023-04-27T08:40:39.478Z,711.00
2023-04-27T08:41:39.606Z,791.00
2023-04-27T08:42:39.606Z,880.00
2023-04-27T08:43:39.708Z,932.00
2023-04-27T08:44:39.806Z,1001.00
2023-04-27T08:45:39.824Z,1050.00
2023-04-27T08:46:39.923Z,1093.00
2023-04-27T08:47:43.458Z,1156.00
2023-04-27T08:48:39.916Z,1157.00
2023-04-27T08:49:40.013Z,1168.00
2023-04-27T08:50:39.927Z,1193.00
2023-04-27T08:51:40.204Z,1254.00
2023-04-27T08:52:39.928Z,1347.00
2023-04-27T08:53:39.931Z,1427.00
2023-04-27T08:54:39.930Z,1455.00
2023-04-27T08:55:39.938Z,1500.00
2023-04-27T08:56:39.953Z,1544.00
2023-04-27T08:57:40.142Z,1564.00
2023-04-27T08:58:39.975Z,1635.00
2023-04-27T08:59:39.940Z,1669.00
2023-04-27T09:00:39.954Z,1722.00
2023-04-27T09:01:40.002Z,1754.00
2023-04-27T09:02:40.062Z,1800.00
2023-04-27T09:03:40.112Z,1841.00
2023-04-27T09:04:40.128Z,1835.00
2023-04-27T09:05:46.653Z,1880.00
2023-04-27T09:06:40.967Z,1883.00
2023-04-27T09:07:39.934Z,1901.00
2023-04-27T09:08:39.955Z,1944.00
2023-04-27T09:09:39.948Z,2022.00
2023-04-27T09:10:39.936Z,2147.00
2023-04-27T09:11:39.991Z,2181.00
2023-04-27T09:12:39.909Z,2249.00
2023-04-27T09:13:39.902Z,2292.00
2023-04-27T09:14:39.909Z,2293.00
2023-04-27T09:15:39.909Z,2306.00
2023-04-27T09:16:40.010Z,2330.00
2023-04-27T09:17:39.934Z,2382.00
2023-04-27T09:18:39.919Z,2494.00
2023-04-27T09:19:39.903Z,2524.00
2023-04-27T09:20:39.881Z,2591.00
2023-04-27T09:21:39.885Z,2615.00
2023-04-27T09:22:39.902Z,2626.00
2023-04-27T09:23:39.927Z,2693.00
2023-04-27T09:24:39.877Z,2738.00
2023-04-27T09:25:39.889Z,2755.00
2023-04-27T09:26:39.868Z,2770.00
2023-04-27T09:27:39.921Z,2802.00
2023-04-27T09:28:39.974Z,2746.00
2023-04-27T09:29:40.000Z,2829.00
2023-04-27T09:30:40.058Z,2883.00
2023-04-27T09:31:40.158Z,2931.00
2023-04-27T09:32:40.174Z,2944.00
2023-04-27T09:33:40.172Z,2952.00
2023-04-27T09:34:40.217Z,3003.00
2023-04-27T09:35:40.244Z,3029.00
2023-04-27T09:36:40.274Z,3057.00
2023-04-27T09:37:40.337Z,3103.00
2023-04-27T09:38:40.354Z,3117.00
2023-04-27T09:39:40.425Z,3175.00
2023-04-27T09:40:40.446Z,3176.00
2023-04-27T09:41:40.494Z,3209.00
2023-04-27T09:42:40.489Z,3263.00
2023-04-27T09:43:40.532Z,3261.00
2023-04-27T09:44:40.577Z,3305.00
2023-04-27T09:45:40.714Z,3321.00
2023-04-27T09:46:40.659Z,3311.00
2023-04-27T09:47:40.747Z,3347.00
2023-04-27T09:48:40.743Z,3357.00
2023-04-27T09:49:40.747Z,3354.00
2023-04-27T09:50:40.786Z,3355.00
2023-04-27T09:51:40.749Z,3363.00
2023-04-27T09:52:40.753Z,3385.00
2023-04-27T09:53:40.736Z,3430.00
2023-04-27T09:54:41.433Z,3480.00
2023-04-27T09:55:40.725Z,3513.00
2023-04-27T09:56:40.747Z,3516.00
2023-04-27T09:57:40.722Z,3533.00
2023-04-27T09:58:40.727Z,3559.00
2023-04-27T09:59:40.723Z,3590.00
2023-04-27T10:00:40.699Z,3557.00
2023-04-27T10:01:40.830Z,3591.00
2023-04-27T10:02:52.218Z,3599.00
2023-04-27T10:03:41.747Z,3601.00
2023-04-27T10:04:40.790Z,3610.00
2023-04-27T10:05:40.668Z,3622.00
2023-04-27T10:06:40.671Z,3634.00
2023-04-27T10:07:40.671Z,3687.00
2023-04-27T10:08:40.643Z,3694.00
2023-04-27T10:09:40.648Z,3700.00
2023-04-27T10:10:40.643Z,3697.00
2023-04-27T10:11:40.973Z,3730.00
2023-04-27T10:12:40.614Z,3759.00
2023-04-27T10:13:40.597Z,3756.00
2023-04-27T10:14:40.610Z,3734.00
2023-04-27T10:15:40.622Z,3800.00
2023-04-27T10:16:40.618Z,3814.00
2023-04-27T10:17:40.671Z,3793.00
2023-04-27T10:18:40.579Z,3822.00
2023-04-27T10:19:40.632Z,3810.00
2023-04-27T10:20:40.657Z,3830.00
2023-04-27T10:21:40.692Z,3874.00
2023-04-27T10:22:40.756Z,3872.00
2023-04-27T10:23:40.784Z,3865.00
2023-04-27T10:24:40.839Z,3866.00
2023-04-27T10:25:40.966Z,3879.00
2023-04-27T10:26:40.873Z,3890.00
2023-04-27T10:27:40.873Z,3904.00
2023-04-27T10:28:40.959Z,3893.00
2023-04-27T10:29:40.988Z,3919.00
2023-04-27T10:30:41.017Z,3948.00
2023-04-27T10:31:41.079Z,3949.00
2023-04-27T10:32:41.106Z,3961.00
2023-04-27T10:33:41.076Z,3971.00
2023-04-27T10:34:41.162Z,3932.00
2023-04-27T10:35:41.249Z,3963.00
2023-04-27T10:36:41.294Z,3978.00
2023-04-27T10:37:41.210Z,3986.00
2023-04-27T10:38:41.244Z,3986.00
2023-04-27T10:39:48.556Z,3996.00
2023-04-27T10:40:42.257Z,3997.00
2023-04-27T10:41:41.265Z,4001.00
2023-04-27T10:42:41.267Z,4007.00
2023-04-27T10:43:41.281Z,4017.00
2023-04-27T10:44:41.240Z,4040.00
2023-04-27T10:45:41.252Z,4047.00
2023-04-27T10:46:41.499Z,4052.00
2023-04-27T10:47:41.316Z,4056.00
2023-04-27T10:48:41.239Z,4072.00
2023-04-27T10:49:41.245Z,4080.00
2023-04-27T10:50:41.215Z,4060.00
2023-04-27T10:51:41.265Z,4052.00
2023-04-27T10:52:41.225Z,4066.00
2023-04-27T10:53:41.201Z,4059.00
2023-04-27T10:54:41.237Z,4053.00
2023-04-27T10:55:41.206Z,4058.00
2023-04-27T10:56:41.191Z,4067.00
2023-04-27T10:57:41.188Z,4096.00
2023-04-27T10:58:49.036Z,4049.00
2023-04-27T10:59:42.181Z,4051.00
2023-04-27T11:00:41.171Z,4056.00
2023-04-27T11:01:41.559Z,4075.00
2023-04-27T11:02:41.285Z,4081.00
2023-04-27T11:03:41.319Z,4091.00
2023-04-27T11:04:41.203Z,4104.00
2023-04-27T11:05:41.125Z,4126.00
2023-04-27T11:06:41.166Z,4126.00
2023-04-27T11:07:41.145Z,4120.00
2023-04-27T11:08:41.103Z,4133.00
2023-04-27T11:09:41.127Z,4127.00
2023-04-27T11:10:41.107Z,4131.00
2023-04-27T11:11:41.146Z,4132.00
2023-04-27T11:12:41.094Z,4153.00
2023-04-27T11:13:41.062Z,4150.00
2023-04-27T11:14:41.973Z,4174.00
2023-04-27T11:15:42.014Z,4165.00
2023-04-27T11:16:41.104Z,4170.00
2023-04-27T11:17:41.071Z,4177.00
2023-04-27T11:18:41.168Z,4187.00
2023-04-27T11:19:41.034Z,4168.00
2023-04-27T11:20:40.970Z,4190.00
2023-04-27T11:21:41.134Z,4178.00
2023-04-27T11:22:40.951Z,4193.00
2023-04-27T11:23:40.957Z,4196.00
2023-04-27T11:24:40.958Z,4214.00
2023-04-27T11:25:40.964Z,4230.00
2023-04-27T11:26:40.930Z,4191.00
2023-04-27T11:27:41.106Z,4184.00
2023-04-27T11:28:40.899Z,4218.00
2023-04-27T11:29:40.921Z,4197.00
2023-04-27T11:30:40.895Z,4212.00
2023-04-27T11:31:40.964Z,4245.00
2023-04-27T11:32:40.935Z,4230.00
2023-04-27T11:33:40.877Z,4235.00
2023-04-27T11:34:40.874Z,4230.00
2023-04-27T11:35:40.838Z,4235.00
2023-04-27T11:36:40.838Z,4200.00
2023-04-27T11:37:40.996Z,4193.00
2023-04-27T11:38:40.849Z,4195.00
2023-04-27T11:39:40.830Z,4211.00
2023-04-27T11:40:40.874Z,4230.00
2023-04-27T11:41:40.884Z,4208.00
2023-04-27T11:42:40.917Z,4222.00
2023-04-27T11:43:40.975Z,4205.00
2023-04-27T11:44:40.972Z,4184.00
2023-04-27T11:45:40.993Z,4196.00
2023-04-27T11:46:41.516Z,4198.00
2023-04-27T11:47:41.117Z,4225.00
2023-04-27T11:48:41.097Z,4228.00
2023-04-27T11:49:41.114Z,4234.00
2023-04-27T11:50:41.165Z,4195.00
2023-04-27T11:51:41.204Z,4227.00
2023-04-27T11:52:41.221Z,4239.00
2023-04-27T11:53:41.260Z,4210.00
2023-04-27T11:54:41.295Z,4308.00
2023-04-27T11:55:41.330Z,4315.00
2023-04-27T11:56:41.357Z,4258.00
2023-04-27T11:57:41.374Z,4293.00
2023-04-27T11:58:41.427Z,4235.00
2023-04-27T11:59:41.461Z,4278.00
2023-04-27T12:00:41.497Z,4255.00
2023-04-27T12:01:41.496Z,4260.00
2023-04-27T12:02:41.706Z,4233.00
2023-04-27T12:03:41.801Z,4256.00
2023-04-27T12:04:41.804Z,4269.00
2023-04-27T12:05:41.656Z,4264.00
2023-04-27T12:06:41.670Z,4242.00